Terminal Aerodrome Forecast
Issued by NWS Grand Forks, ND

Home | Current Version | Previous Version | Text Only | Print | Product List | Glossary Off
Versions: 1 2 3 4 5 6 7 8 9 10 11 12 13 14 15 16 17 18 19 20 21 22 23

860
FTUS43 KFGF 221946 AAC
TAFGFK
TAF AMD
KGFK 221946Z 2220/2318 01013G19KT P6SM SCT025
     FM230100 02012KT P6SM BKN025
     FM230700 01009KT 5SM -RASN OVC012
     FM230900 01010KT 1SM -SN OVC012
     FM231600 06011KT P6SM OVC025=

USA.gov is the U.S. government's official web portal to all federal, state and local government web resources and services.